Time;durP1;ratioP1;P1;durP2;ratioP2;P2;SDS_P1;SDS_P2;PMS_P1;PMS_P2;Temp;Humidity;BMP_temperature;BMP_pressure;BME280_temperature;BME280_humidity;BME280_pressure;Samples;Min_cycle;Max_cycle;Signal;HPM_P1;HPM_P2
2024/01/23 00:01:43;;;;;;;38.97;29.13;;;;;;;;;;5038751;28;20214;-80
2024/01/23 00:04:10;;;;;;;39.90;30.37;;;;;;;;;;5017967;28;20221;-82
2024/01/23 00:06:37;;;;;;;40.77;30.30;;;;;;;;;;5029421;28;20205;-82
2024/01/23 00:09:04;;;;;;;39.43;30.37;;;;;;;;;;5045603;28;20198;-79
2024/01/23 00:11:31;;;;;;;39.20;30.20;;;;;;;;;;5029790;28;20198;-82
2024/01/23 00:13:58;;;;;;;41.90;30.83;;;;;;;;;;5026444;28;20205;-80
2024/01/23 00:16:24;;;;;;;41.93;30.03;;;;;;;;;;5011428;28;20244;-82
2024/01/23 00:18:51;;;;;;;40.43;31.27;;;;;;;;;;5048006;28;20249;-80
2024/01/23 00:21:18;;;;;;;42.73;31.83;;;;;;;;;;5025991;28;20198;-82
2024/01/23 00:23:45;;;;;;;43.20;31.93;;;;;;;;;;5029686;28;20213;-80
2024/01/23 00:26:11;;;;;;;40.43;32.07;;;;;;;;;;5048865;28;20217;-80
2024/01/23 00:28:38;;;;;;;46.67;32.60;;;;;;;;;;5051969;28;20198;-81
2024/01/23 00:31:06;;;;;;;44.70;33.67;;;;;;;;;;5034313;28;20202;-79
2024/01/23 00:33:32;;;;;;;47.87;34.40;;;;;;;;;;5034631;28;20222;-81
2024/01/23 00:35:59;;;;;;;49.80;34.57;;;;;;;;;;5048683;28;20644;-83
2024/01/23 00:38:26;;;;;;;50.97;35.60;;;;;;;;;;5029977;28;20201;-81
2024/01/23 00:40:53;;;;;;;49.47;36.43;;;;;;;;;;5031039;28;20205;-80
2024/01/23 00:43:19;;;;;;;52.70;36.57;;;;;;;;;;5041097;28;20204;-80
2024/01/23 00:45:46;;;;;;;50.03;35.87;;;;;;;;;;5028765;28;20217;-80
2024/01/23 00:48:16;;;;;;;52.43;36.40;;;;;;;;;;5026378;28;20256;-81
2024/01/23 00:50:43;;;;;;;50.30;36.30;;;;;;;;;;5047991;28;20233;-81
2024/01/23 00:53:10;;;;;;;52.23;35.57;;;;;;;;;;5034360;28;20186;-80
2024/01/23 00:55:37;;;;;;;50.63;36.33;;;;;;;;;;5052030;28;20197;-80
2024/01/23 00:58:03;;;;;;;52.47;35.87;;;;;;;;;;5034210;28;20269;-80
2024/01/23 01:00:30;;;;;;;51.67;35.77;;;;;;;;;;5023059;28;20205;-82
2024/01/23 01:02:56;;;;;;;49.03;36.13;;;;;;;;;;5034034;28;20248;-80
2024/01/23 01:05:25;;;;;;;50.90;36.43;;;;;;;;;;5028102;28;20594;-81
2024/01/23 01:07:51;;;;;;;49.67;35.90;;;;;;;;;;5037199;28;20232;-80
2024/01/23 01:10:18;;;;;;;51.87;36.20;;;;;;;;;;5048891;28;20730;-82
2024/01/23 01:12:45;;;;;;;50.40;36.37;;;;;;;;;;5051504;28;20211;-80
2024/01/23 01:15:11;;;;;;;52.67;37.53;;;;;;;;;;5031500;28;20646;-81
2024/01/23 01:17:38;;;;;;;54.90;36.93;;;;;;;;;;5051397;28;20198;-80
2024/01/23 01:20:05;;;;;;;54.63;38.50;;;;;;;;;;5051724;28;20276;-82
2024/01/23 01:22:32;;;;;;;54.43;38.27;;;;;;;;;;5016857;28;20741;-83
2024/01/23 01:24:58;;;;;;;51.97;37.13;;;;;;;;;;5051660;28;20216;-81
2024/01/23 01:27:25;;;;;;;54.27;38.27;;;;;;;;;;5051047;28;20273;-79
2024/01/23 01:29:51;;;;;;;49.70;36.00;;;;;;;;;;5030600;28;20209;-81
2024/01/23 01:32:18;;;;;;;52.27;37.67;;;;;;;;;;5025419;28;20255;-82
2024/01/23 01:34:45;;;;;;;55.20;37.80;;;;;;;;;;5034047;28;20244;-81
2024/01/23 01:37:12;;;;;;;53.73;37.30;;;;;;;;;;5033638;28;20217;-81
2024/01/23 01:39:38;;;;;;;50.90;37.40;;;;;;;;;;5051429;28;20200;-80
2024/01/23 01:42:05;;;;;;;50.70;36.50;;;;;;;;;;5034667;28;20248;-80
2024/01/23 01:44:32;;;;;;;54.50;37.57;;;;;;;;;;5051382;28;20221;-78
2024/01/23 01:46:59;;;;;;;54.63;38.33;;;;;;;;;;5050995;28;20189;-83
2024/01/23 01:49:26;;;;;;;55.47;37.90;;;;;;;;;;5017909;28;20214;-81
2024/01/23 01:51:53;;;;;;;57.90;39.03;;;;;;;;;;5040985;28;20233;-79
2024/01/23 01:54:21;;;;;;;52.77;37.23;;;;;;;;;;5020246;28;20191;-80
2024/01/23 01:56:49;;;;;;;53.87;38.53;;;;;;;;;;5013744;28;20240;-82
2024/01/23 01:59:18;;;;;;;55.83;38.47;;;;;;;;;;5017218;28;20252;-81
2024/01/23 02:01:44;;;;;;;60.43;38.87;;;;;;;;;;5019942;28;20202;-81
2024/01/23 02:04:11;;;;;;;54.47;37.70;;;;;;;;;;5018118;28;20218;-83
2024/01/23 02:06:38;;;;;;;52.50;38.20;;;;;;;;;;5021966;28;20273;-82
2024/01/23 02:09:05;;;;;;;59.47;40.00;;;;;;;;;;5031683;28;20205;-81
2024/01/23 02:11:32;;;;;;;54.80;40.03;;;;;;;;;;5017229;28;20209;-83
2024/01/23 02:13:59;;;;;;;56.80;38.67;;;;;;;;;;5021154;28;20194;-81
2024/01/23 02:16:25;;;;;;;58.37;39.60;;;;;;;;;;5017505;28;20190;-83
2024/01/23 02:18:52;;;;;;;53.77;37.83;;;;;;;;;;5012013;28;20267;-82
2024/01/23 02:21:19;;;;;;;55.63;37.17;;;;;;;;;;5021913;28;20197;-86
2024/01/23 02:23:45;;;;;;;51.43;37.33;;;;;;;;;;5014049;28;20218;-82
2024/01/23 02:26:15;;;;;;;53.37;36.97;;;;;;;;;;5020013;28;20210;-81
2024/01/23 02:28:42;;;;;;;53.77;36.33;;;;;;;;;;5016873;28;20207;-81
2024/01/23 02:31:09;;;;;;;56.20;36.97;;;;;;;;;;5015919;28;20218;-81
2024/01/23 02:33:35;;;;;;;54.57;37.70;;;;;;;;;;5036351;28;20197;-80
2024/01/23 02:36:02;;;;;;;57.37;39.33;;;;;;;;;;5011025;28;20210;-79
2024/01/23 02:38:30;;;;;;;56.00;39.53;;;;;;;;;;5012802;28;20586;-84
2024/01/23 02:40:57;;;;;;;56.47;40.03;;;;;;;;;;5003424;28;20214;-80
2024/01/23 02:43:24;;;;;;;59.97;41.17;;;;;;;;;;5017478;28;20190;-82
2024/01/23 02:45:50;;;;;;;57.90;40.30;;;;;;;;;;5018535;28;20214;-80
2024/01/23 02:48:17;;;;;;;60.77;40.20;;;;;;;;;;5032399;28;20217;-79
2024/01/23 02:50:44;;;;;;;59.77;40.17;;;;;;;;;;5015893;28;20244;-83
2024/01/23 02:53:10;;;;;;;56.17;39.30;;;;;;;;;;5019374;28;20216;-80
2024/01/23 02:55:37;;;;;;;54.13;39.33;;;;;;;;;;5033050;28;20198;-81
2024/01/23 02:58:04;;;;;;;58.23;39.07;;;;;;;;;;5015972;28;20198;-82
2024/01/23 03:00:30;;;;;;;61.83;39.83;;;;;;;;;;5013251;28;20214;-83
2024/01/23 03:02:57;;;;;;;59.00;40.17;;;;;;;;;;4996979;28;20194;-81
2024/01/23 03:05:24;;;;;;;62.63;40.03;;;;;;;;;;5013193;28;20222;-81
2024/01/23 03:07:52;;;;;;;59.50;40.30;;;;;;;;;;5012389;28;20199;-81
2024/01/23 03:10:19;;;;;;;61.13;39.87;;;;;;;;;;5031455;28;20194;-82
2024/01/23 03:12:46;;;;;;;61.67;40.47;;;;;;;;;;5030072;28;20194;-80
2024/01/23 03:15:12;;;;;;;62.43;40.87;;;;;;;;;;5023617;28;20225;-81
2024/01/23 03:17:39;;;;;;;63.07;41.37;;;;;;;;;;5034270;28;20202;-84
2024/01/23 03:20:06;;;;;;;63.93;41.93;;;;;;;;;;5017041;28;20198;-79
2024/01/23 03:22:33;;;;;;;63.17;41.77;;;;;;;;;;5034034;28;20190;-80
2024/01/23 03:25:00;;;;;;;66.43;42.50;;;;;;;;;;5016142;28;20245;-79
2024/01/23 03:27:27;;;;;;;67.40;42.87;;;;;;;;;;4999994;28;20241;-82
2024/01/23 03:29:53;;;;;;;65.00;40.83;;;;;;;;;;5018158;28;20194;-80
2024/01/23 03:32:20;;;;;;;66.50;42.03;;;;;;;;;;5018228;28;20680;-84
2024/01/23 03:34:49;;;;;;;62.83;41.10;;;;;;;;;;5017777;28;20663;-82
2024/01/23 03:37:16;;;;;;;67.43;41.53;;;;;;;;;;5014635;28;20718;-80
2024/01/23 03:39:43;;;;;;;66.57;42.03;;;;;;;;;;5017600;28;20198;-81
2024/01/23 03:42:10;;;;;;;64.63;41.70;;;;;;;;;;5040316;28;20190;-81
2024/01/23 03:44:37;;;;;;;64.00;41.53;;;;;;;;;;5016206;28;20221;-79
2024/01/23 03:47:03;;;;;;;63.87;40.83;;;;;;;;;;5016107;28;20285;-82
2024/01/23 03:49:30;;;;;;;67.07;42.33;;;;;;;;;;5020377;28;20225;-82
2024/01/23 03:51:57;;;;;;;63.10;41.03;;;;;;;;;;5029358;28;20238;-82
2024/01/23 03:54:24;;;;;;;69.07;43.00;;;;;;;;;;5036680;28;20189;-82
2024/01/23 03:56:50;;;;;;;63.20;40.53;;;;;;;;;;5033294;28;20202;-82
2024/01/23 03:59:17;;;;;;;62.23;41.57;;;;;;;;;;5021523;28;20220;-83
2024/01/23 04:01:44;;;;;;;67.10;43.20;;;;;;;;;;5034603;28;20657;-81
2024/01/23 04:04:11;;;;;;;65.07;42.33;;;;;;;;;;5057332;28;20194;-81
2024/01/23 04:06:37;;;;;;;68.80;43.33;;;;;;;;;;5036063;28;20296;-81
2024/01/23 04:09:04;;;;;;;67.60;42.00;;;;;;;;;;5025037;28;20324;-81
2024/01/23 04:11:31;;;;;;;68.17;42.27;;;;;;;;;;5055380;28;20217;-82
2024/01/23 04:13:58;;;;;;;61.37;40.17;;;;;;;;;;5041323;28;20190;-82
2024/01/23 04:16:24;;;;;;;67.20;41.23;;;;;;;;;;5065027;28;20205;-79
2024/01/23 04:18:54;;;;;;;68.40;41.70;;;;;;;;;;5018281;28;20232;-83
2024/01/23 04:21:23;;;;;;;68.13;43.53;;;;;;;;;;5034175;28;20210;-81
2024/01/23 04:23:50;;;;;;;67.20;42.70;;;;;;;;;;5054635;28;20194;-80
2024/01/23 04:26:18;;;;;;;62.90;39.73;;;;;;;;;;5022793;28;20693;-81
2024/01/23 04:28:48;;;;;;;65.07;42.30;;;;;;;;;;5036201;28;20193;-80
2024/01/23 04:31:15;;;;;;;63.27;39.90;;;;;;;;;;5027767;28;20289;-82
2024/01/23 04:33:42;;;;;;;65.13;41.53;;;;;;;;;;5000534;28;20226;-81
2024/01/23 04:36:09;;;;;;;65.87;42.47;;;;;;;;;;5048296;28;20197;-82
2024/01/23 04:38:37;;;;;;;69.37;40.97;;;;;;;;;;5051839;28;20221;-81
2024/01/23 04:41:04;;;;;;;67.17;42.17;;;;;;;;;;5034438;28;20725;-77
2024/01/23 04:43:30;;;;;;;68.17;43.67;;;;;;;;;;5040393;28;20193;-83
2024/01/23 04:45:57;;;;;;;67.47;41.80;;;;;;;;;;5043829;28;20677;-79
2024/01/23 04:48:23;;;;;;;71.33;42.23;;;;;;;;;;5042157;28;20200;-83
2024/01/23 04:50:50;;;;;;;66.83;41.57;;;;;;;;;;5041751;28;20308;-79
2024/01/23 04:53:17;;;;;;;68.83;41.90;;;;;;;;;;5031354;28;20202;-78
2024/01/23 04:55:44;;;;;;;67.70;42.80;;;;;;;;;;5051607;28;20217;-79
2024/01/23 04:58:10;;;;;;;71.80;42.87;;;;;;;;;;5035741;28;20720;-83
2024/01/23 05:00:37;;;;;;;68.33;42.70;;;;;;;;;;5034593;28;20693;-81
2024/01/23 05:03:04;;;;;;;65.03;41.63;;;;;;;;;;5040080;28;20190;-79
2024/01/23 05:05:31;;;;;;;68.13;42.33;;;;;;;;;;5034210;28;20226;-82
2024/01/23 05:07:58;;;;;;;64.37;40.57;;;;;;;;;;5033426;28;20305;-80
2024/01/23 05:10:24;;;;;;;69.40;42.70;;;;;;;;;;5033807;28;20217;-80
2024/01/23 05:12:51;;;;;;;68.73;42.97;;;;;;;;;;5052894;28;20254;-79
2024/01/23 05:15:17;;;;;;;71.53;44.03;;;;;;;;;;5055547;28;20194;-80
2024/01/23 05:17:44;;;;;;;73.90;44.70;;;;;;;;;;5034157;28;20248;-80
2024/01/23 05:20:11;;;;;;;74.57;43.77;;;;;;;;;;5050413;28;20197;-83
2024/01/23 05:22:39;;;;;;;70.60;43.80;;;;;;;;;;5036303;28;20186;-81
2024/01/23 05:25:06;;;;;;;70.17;43.30;;;;;;;;;;5052597;28;20217;-78
2024/01/23 05:27:33;;;;;;;65.03;42.43;;;;;;;;;;5042227;28;20208;-80
2024/01/23 05:30:00;;;;;;;74.03;44.30;;;;;;;;;;5051253;28;20185;-79
2024/01/23 05:32:27;;;;;;;68.17;42.60;;;;;;;;;;5037313;28;20734;-81
2024/01/23 05:34:53;;;;;;;73.10;44.33;;;;;;;;;;5019909;28;20197;-81
2024/01/23 05:37:21;;;;;;;72.93;44.20;;;;;;;;;;5025848;28;20267;-80
2024/01/23 05:39:47;;;;;;;71.13;43.93;;;;;;;;;;5032389;28;20221;-80
2024/01/23 05:42:15;;;;;;;66.40;43.07;;;;;;;;;;5031147;28;20194;-79
2024/01/23 05:44:42;;;;;;;58.93;39.27;;;;;;;;;;5030577;28;20831;-80
2024/01/23 05:47:11;;;;;;;60.10;38.40;;;;;;;;;;5034893;28;20258;-79
2024/01/23 05:49:37;;;;;;;61.60;39.37;;;;;;;;;;5038023;28;20220;-82
2024/01/23 05:52:04;;;;;;;55.53;36.77;;;;;;;;;;5049700;28;20244;-81
2024/01/23 05:54:31;;;;;;;57.23;36.70;;;;;;;;;;5034821;28;20197;-81
2024/01/23 05:56:57;;;;;;;50.53;33.47;;;;;;;;;;5019167;28;20233;-79
2024/01/23 05:59:24;;;;;;;50.33;31.03;;;;;;;;;;5038379;28;20193;-83
2024/01/23 06:01:51;;;;;;;34.80;23.77;;;;;;;;;;5033958;28;20194;-79
2024/01/23 06:04:18;;;;;;;35.97;22.53;;;;;;;;;;5035779;28;20612;-80
2024/01/23 06:06:44;;;;;;;30.93;19.53;;;;;;;;;;5049222;28;20755;-80
2024/01/23 06:09:11;;;;;;;31.33;20.10;;;;;;;;;;5050730;28;20277;-83
2024/01/23 06:11:39;;;;;;;21.10;13.73;;;;;;;;;;5041876;28;20228;-79
2024/01/23 06:14:07;;;;;;;14.47;9.63;;;;;;;;;;5036022;28;20277;-80
2024/01/23 06:16:33;;;;;;;9.20;6.07;;;;;;;;;;5047426;28;20197;-83
2024/01/23 06:19:00;;;;;;;12.13;6.17;;;;;;;;;;5052762;28;20206;-80
2024/01/23 06:21:27;;;;;;;5.83;3.80;;;;;;;;;;5035974;28;20189;-79
2024/01/23 06:23:53;;;;;;;5.03;3.40;;;;;;;;;;5034615;28;20201;-79
2024/01/23 06:26:20;;;;;;;2.90;1.77;;;;;;;;;;5036260;28;20243;-81
2024/01/23 06:28:47;;;;;;;4.00;1.60;;;;;;;;;;5041250;28;20292;-80
2024/01/23 06:31:14;;;;;;;2.43;1.20;;;;;;;;;;5052056;28;20204;-80
2024/01/23 06:33:40;;;;;;;5.23;1.30;;;;;;;;;;5036335;28;20209;-80
2024/01/23 06:36:07;;;;;;;2.30;1.20;;;;;;;;;;5037021;28;20839;-81
2024/01/23 06:38:34;;;;;;;1.50;1.00;;;;;;;;;;5037114;28;20197;-81
2024/01/23 06:41:01;;;;;;;2.97;0.97;;;;;;;;;;5051664;28;20196;-82
2024/01/23 06:43:27;;;;;;;2.87;0.87;;;;;;;;;;5042339;28;20365;-81
2024/01/23 06:45:55;;;;;;;2.93;1.00;;;;;;;;;;5034260;28;20222;-81
2024/01/23 06:48:21;;;;;;;1.10;0.80;;;;;;;;;;5044445;28;20285;-81
2024/01/23 06:50:48;;;;;;;1.83;0.70;;;;;;;;;;5029689;28;20267;-82
2024/01/23 06:53:15;;;;;;;1.93;0.83;;;;;;;;;;5025004;28;20201;-80
2024/01/23 06:55:41;;;;;;;1.70;1.20;;;;;;;;;;5035792;28;20198;-80
2024/01/23 06:58:08;;;;;;;1.90;0.77;;;;;;;;;;5043433;28;20259;-82
2024/01/23 07:00:35;;;;;;;1.40;0.70;;;;;;;;;;5025569;28;20254;-80
2024/01/23 07:03:02;;;;;;;2.87;1.10;;;;;;;;;;5034707;28;20194;-80
2024/01/23 07:05:29;;;;;;;1.97;0.67;;;;;;;;;;5043196;28;20206;-81
2024/01/23 07:07:55;;;;;;;2.87;1.00;;;;;;;;;;5034824;28;20187;-81
2024/01/23 07:10:22;;;;;;;1.77;0.73;;;;;;;;;;5043511;28;20252;-79
2024/01/23 07:12:49;;;;;;;1.30;0.57;;;;;;;;;;5037783;28;20206;-81
2024/01/23 07:15:15;;;;;;;1.73;0.70;;;;;;;;;;5017900;28;20198;-82
2024/01/23 07:17:42;;;;;;;1.30;0.80;;;;;;;;;;5037715;28;20214;-80
2024/01/23 07:20:10;;;;;;;1.73;0.80;;;;;;;;;;5038709;28;20194;-83
2024/01/23 07:22:37;;;;;;;2.83;0.70;;;;;;;;;;5033541;28;20462;-84
2024/01/23 07:25:04;;;;;;;1.87;0.60;;;;;;;;;;5021354;28;20264;-82
2024/01/23 07:27:30;;;;;;;2.10;0.80;;;;;;;;;;5033609;28;20221;-83
2024/01/23 07:29:57;;;;;;;0.70;0.50;;;;;;;;;;5040721;28;20194;-82
2024/01/23 07:32:24;;;;;;;0.77;0.40;;;;;;;;;;5037354;28;20289;-81
2024/01/23 07:34:51;;;;;;;1.17;0.60;;;;;;;;;;5037384;28;20202;-82
2024/01/23 07:37:18;;;;;;;1.00;0.40;;;;;;;;;;5035192;28;20233;-82
2024/01/23 07:39:44;;;;;;;1.00;0.47;;;;;;;;;;5035045;28;20190;-82
2024/01/23 07:42:11;;;;;;;1.70;0.60;;;;;;;;;;5035181;28;20262;-81
2024/01/23 07:44:42;;;;;;;1.10;0.47;;;;;;;;;;5027664;28;20198;-80
2024/01/23 07:47:09;;;;;;;1.43;0.50;;;;;;;;;;5036613;28;20222;-83
2024/01/23 07:49:35;;;;;;;0.83;0.50;;;;;;;;;;5021047;28;20214;-80
2024/01/23 07:52:02;;;;;;;1.03;0.40;;;;;;;;;;5049163;28;20225;-82
2024/01/23 07:54:32;;;;;;;1.87;0.70;;;;;;;;;;5049361;28;20221;-81
2024/01/23 07:56:59;;;;;;;1.23;0.50;;;;;;;;;;5024221;28;20209;-79
2024/01/23 07:59:25;;;;;;;2.23;0.60;;;;;;;;;;5025065;28;20202;-81
2024/01/23 08:01:52;;;;;;;1.97;0.60;;;;;;;;;;5015383;28;20211;-79
2024/01/23 08:04:19;;;;;;;1.43;0.50;;;;;;;;;;5042609;28;20206;-81
2024/01/23 08:06:46;;;;;;;1.17;0.50;;;;;;;;;;5032446;28;20242;-81
2024/01/23 08:09:13;;;;;;;1.40;0.57;;;;;;;;;;5036838;28;20194;-81
2024/01/23 08:11:40;;;;;;;1.23;0.60;;;;;;;;;;5049776;28;20197;-83
2024/01/23 08:14:07;;;;;;;1.77;0.63;;;;;;;;;;5041944;28;20202;-79
2024/01/23 08:16:33;;;;;;;0.60;0.53;;;;;;;;;;5043655;28;20430;-82
2024/01/23 08:19:02;;;;;;;2.07;0.60;;;;;;;;;;5033392;28;20202;-79
2024/01/23 08:21:30;;;;;;;1.53;0.60;;;;;;;;;;5027646;28;20224;-81
2024/01/23 08:23:56;;;;;;;0.57;0.50;;;;;;;;;;5047065;28;20198;-80
2024/01/23 08:26:23;;;;;;;0.57;0.43;;;;;;;;;;5034476;28;20229;-81
2024/01/23 08:28:58;;;;;;;0.63;0.50;;;;;;;;;;5053298;28;20194;-81
2024/01/23 08:31:25;;;;;;;0.57;0.40;;;;;;;;;;5048707;28;20695;-79
2024/01/23 08:33:52;;;;;;;1.13;0.40;;;;;;;;;;5050338;28;20201;-79
2024/01/23 08:36:19;;;;;;;1.70;0.50;;;;;;;;;;5046923;28;20194;-80
2024/01/23 08:38:45;;;;;;;0.77;0.40;;;;;;;;;;5050247;28;20194;-82
2024/01/23 08:41:12;;;;;;;0.90;0.40;;;;;;;;;;5045009;28;20194;-79
2024/01/23 08:43:39;;;;;;;2.07;0.57;;;;;;;;;;5036421;28;20305;-82
2024/01/23 08:46:05;;;;;;;0.70;0.50;;;;;;;;;;5035669;28;20466;-79
2024/01/23 08:48:32;;;;;;;2.13;0.43;;;;;;;;;;5051206;28;20190;-80
2024/01/23 08:50:59;;;;;;;0.93;0.30;;;;;;;;;;5015494;28;20304;-80
2024/01/23 08:53:25;;;;;;;1.13;0.33;;;;;;;;;;5015938;28;20202;-80
2024/01/23 08:55:52;;;;;;;1.20;0.50;;;;;;;;;;5033992;28;20225;-80
2024/01/23 08:58:19;;;;;;;0.93;0.50;;;;;;;;;;5031631;28;20198;-78
2024/01/23 09:00:45;;;;;;;1.30;0.37;;;;;;;;;;5036907;28;20194;-78
2024/01/23 09:03:13;;;;;;;1.23;0.70;;;;;;;;;;5035540;28;20233;-84
2024/01/23 09:05:39;;;;;;;0.67;0.43;;;;;;;;;;5031423;28;20239;-77
2024/01/23 09:08:11;;;;;;;0.63;0.40;;;;;;;;;;5027104;28;20852;-79
2024/01/23 09:10:38;;;;;;;1.57;0.60;;;;;;;;;;5030273;28;20671;-78
2024/01/23 09:13:04;;;;;;;1.70;0.50;;;;;;;;;;5031070;28;20212;-78
2024/01/23 09:15:31;;;;;;;2.23;0.67;;;;;;;;;;5030143;28;20198;-77
2024/01/23 09:17:58;;;;;;;0.90;0.50;;;;;;;;;;5031670;28;20276;-77
2024/01/23 09:20:26;;;;;;;1.40;0.60;;;;;;;;;;5030311;28;20273;-77
2024/01/23 09:22:52;;;;;;;1.20;0.50;;;;;;;;;;5030214;28;20200;-79
2024/01/23 09:25:19;;;;;;;1.60;0.60;;;;;;;;;;5030335;28;20186;-76
2024/01/23 09:27:46;;;;;;;1.60;0.50;;;;;;;;;;5030390;28;20220;-79
2024/01/23 09:30:19;;;;;;;1.57;0.60;;;;;;;;;;5027991;28;20264;-76
2024/01/23 09:32:52;;;;;;;2.00;0.67;;;;;;;;;;5034138;28;20200;-78
2024/01/23 09:35:19;;;;;;;1.70;0.50;;;;;;;;;;5030450;28;20198;-78
2024/01/23 09:37:45;;;;;;;1.90;0.60;;;;;;;;;;5030416;28;20213;-76
2024/01/23 09:40:14;;;;;;;1.73;0.53;;;;;;;;;;5030306;28;20194;-79
2024/01/23 09:42:41;;;;;;;1.27;0.60;;;;;;;;;;5031940;28;20193;-79
2024/01/23 09:45:17;;;;;;;0.80;0.40;;;;;;;;;;5025600;28;20194;-78
2024/01/23 09:47:46;;;;;;;2.23;0.53;;;;;;;;;;5030339;28;20224;-79
2024/01/23 09:50:15;;;;;;;3.33;0.50;;;;;;;;;;5035498;28;20949;-75
2024/01/23 09:52:44;;;;;;;2.50;0.60;;;;;;;;;;5040775;28;20194;-77
2024/01/23 09:55:11;;;;;;;2.10;0.50;;;;;;;;;;5032734;28;20194;-76
2024/01/23 09:57:42;;;;;;;0.67;0.40;;;;;;;;;;5040039;28;20247;-79
2024/01/23 10:00:13;;;;;;;1.20;0.40;;;;;;;;;;5040028;28;20193;-77
2024/01/23 10:02:40;;;;;;;2.33;0.60;;;;;;;;;;5035765;28;20210;-77
2024/01/23 10:05:08;;;;;;;1.23;0.50;;;;;;;;;;5036756;28;20208;-77
2024/01/23 10:07:37;;;;;;;1.83;0.70;;;;;;;;;;5040974;28;20226;-77
2024/01/23 10:10:14;;;;;;;1.73;0.67;;;;;;;;;;5033495;28;20197;-77
2024/01/23 10:12:44;;;;;;;2.43;0.70;;;;;;;;;;5033204;28;20197;-79
2024/01/23 10:15:12;;;;;;;2.00;0.60;;;;;;;;;;5028828;28;20863;-78
2024/01/23 10:17:39;;;;;;;2.40;0.70;;;;;;;;;;5041720;28;20195;-77
2024/01/23 10:20:08;;;;;;;1.10;0.60;;;;;;;;;;5042286;28;20194;-78
2024/01/23 10:22:35;;;;;;;1.43;0.60;;;;;;;;;;5033774;28;20337;-80
2024/01/23 10:25:15;;;;;;;2.00;0.90;;;;;;;;;;5035800;28;20209;-78
2024/01/23 10:27:41;;;;;;;1.47;0.60;;;;;;;;;;5043783;28;20300;-79
2024/01/23 10:30:08;;;;;;;1.57;0.70;;;;;;;;;;5042370;28;20204;-78
2024/01/23 10:32:36;;;;;;;1.03;0.60;;;;;;;;;;5037244;28;20209;-78
2024/01/23 10:35:03;;;;;;;1.93;0.60;;;;;;;;;;5038600;28;20218;-78
2024/01/23 10:37:30;;;;;;;2.13;0.80;;;;;;;;;;5034681;28;20253;-83
2024/01/23 10:39:56;;;;;;;1.27;0.60;;;;;;;;;;5009364;28;20198;-80
2024/01/23 10:42:23;;;;;;;3.60;0.50;;;;;;;;;;5023754;28;20262;-81
2024/01/23 10:44:50;;;;;;;0.90;0.40;;;;;;;;;;5039348;28;20201;-79
2024/01/23 10:47:18;;;;;;;0.77;0.47;;;;;;;;;;5022068;28;20225;-81
2024/01/23 10:49:46;;;;;;;2.80;0.50;;;;;;;;;;5038576;28;20218;-80
2024/01/23 10:52:19;;;;;;;0.50;0.30;;;;;;;;;;5039684;28;20254;-84
2024/01/23 10:54:47;;;;;;;1.37;0.30;;;;;;;;;;5025121;28;20200;-81
2024/01/23 10:57:25;;;;;;;0.83;0.40;;;;;;;;;;5024804;28;20333;-80
2024/01/23 10:59:51;;;;;;;1.43;0.40;;;;;;;;;;5030329;28;20186;-80
2024/01/23 11:02:37;;;;;;;1.00;0.40;;;;;;;;;;5027924;28;20663;-79
2024/01/23 11:05:04;;;;;;;1.20;0.50;;;;;;;;;;5030134;28;20301;-80
2024/01/23 11:07:42;;;;;;;0.60;0.33;;;;;;;;;;5043632;28;20214;-81
2024/01/23 11:10:27;;;;;;;0.90;0.40;;;;;;;;;;5029949;28;20197;-81
2024/01/23 11:13:10;;;;;;;0.53;0.30;;;;;;;;;;5018807;28;20727;-78
2024/01/23 11:15:37;;;;;;;0.80;0.30;;;;;;;;;;5027644;28;20202;-82
2024/01/23 11:18:26;;;;;;;0.73;0.50;;;;;;;;;;5023531;28;20195;-81
2024/01/23 11:21:09;;;;;;;1.13;0.40;;;;;;;;;;5022170;28;20237;-80
2024/01/23 11:23:37;;;;;;;1.90;0.50;;;;;;;;;;5030520;28;20201;-81
2024/01/23 11:26:08;;;;;;;3.07;0.67;;;;;;;;;;5044637;28;20710;-80
2024/01/23 11:28:36;;;;;;;1.57;0.67;;;;;;;;;;5031660;28;20210;-78
2024/01/23 11:31:13;;;;;;;1.80;0.77;;;;;;;;;;5027748;28;20194;-80
2024/01/23 11:33:39;;;;;;;1.67;0.40;;;;;;;;;;5030401;28;20622;-79
2024/01/23 11:36:07;;;;;;;1.43;0.40;;;;;;;;;;5034214;28;20198;-81
2024/01/23 11:38:44;;;;;;;1.53;0.40;;;;;;;;;;5040721;28;20284;-80
2024/01/23 11:41:15;;;;;;;1.07;0.43;;;;;;;;;;5041787;28;20737;-82
2024/01/23 11:43:41;;;;;;;1.40;0.60;;;;;;;;;;5036124;28;20190;-78
2024/01/23 11:46:14;;;;;;;1.63;0.60;;;;;;;;;;5016445;28;20205;-81
2024/01/23 11:48:41;;;;;;;1.60;0.53;;;;;;;;;;5023715;28;20183;-80
2024/01/23 11:51:09;;;;;;;1.27;0.50;;;;;;;;;;5016483;28;20307;-79
2024/01/23 11:53:38;;;;;;;3.63;0.80;;;;;;;;;;5006629;28;20293;-81
2024/01/23 11:56:06;;;;;;;1.23;0.63;;;;;;;;;;5016368;28;20208;-80
2024/01/23 11:58:33;;;;;;;2.30;0.60;;;;;;;;;;5030691;28;20194;-80
2024/01/23 12:01:01;;;;;;;1.17;0.57;;;;;;;;;;4993204;28;20205;-81
2024/01/23 12:03:28;;;;;;;2.20;0.60;;;;;;;;;;5025099;28;20194;-82
2024/01/23 12:05:55;;;;;;;2.50;0.50;;;;;;;;;;5045800;28;20189;-80
2024/01/23 12:08:25;;;;;;;2.30;0.60;;;;;;;;;;5035877;28;20245;-80
2024/01/23 12:10:52;;;;;;;1.47;0.50;;;;;;;;;;5032580;28;20724;-79
2024/01/23 12:13:22;;;;;;;1.37;0.50;;;;;;;;;;5020485;28;20198;-81
2024/01/23 12:15:50;;;;;;;2.70;0.57;;;;;;;;;;5043510;28;20197;-79
2024/01/23 12:18:18;;;;;;;3.33;0.70;;;;;;;;;;5035897;28;20249;-79
2024/01/23 12:20:49;;;;;;;3.47;0.80;;;;;;;;;;5018862;28;20297;-81
2024/01/23 12:23:16;;;;;;;2.87;0.70;;;;;;;;;;5035306;28;20292;-79
2024/01/23 12:25:43;;;;;;;1.50;0.60;;;;;;;;;;5015096;28;20198;-80
2024/01/23 12:28:10;;;;;;;2.63;0.80;;;;;;;;;;5021651;28;20297;-80
2024/01/23 12:30:37;;;;;;;3.27;0.73;;;;;;;;;;5030016;28;20200;-80
2024/01/23 12:33:05;;;;;;;2.37;0.83;;;;;;;;;;5036654;28;20734;-81
2024/01/23 12:35:35;;;;;;;4.37;0.60;;;;;;;;;;5036308;28;20201;-81
2024/01/23 12:38:02;;;;;;;2.13;0.60;;;;;;;;;;5014891;28;20197;-81
2024/01/23 12:40:29;;;;;;;1.00;0.60;;;;;;;;;;5014929;28;20195;-83
2024/01/23 12:42:56;;;;;;;1.70;0.53;;;;;;;;;;5045180;28;20201;-82
2024/01/23 12:45:23;;;;;;;2.67;0.63;;;;;;;;;;5036237;28;20195;-80
2024/01/23 12:47:50;;;;;;;2.80;2.10;;;;;;;;;;5043921;28;20253;-81
2024/01/23 12:50:22;;;;;;;2.63;0.93;;;;;;;;;;5036379;28;20259;-81
2024/01/23 12:52:52;;;;;;;3.33;2.00;;;;;;;;;;5043820;28;20193;-81
2024/01/23 12:55:20;;;;;;;3.00;1.77;;;;;;;;;;5036471;28;20268;-79
2024/01/23 12:57:47;;;;;;;1.77;0.90;;;;;;;;;;5056436;28;20204;-82
2024/01/23 13:00:14;;;;;;;2.97;1.03;;;;;;;;;;5018550;28;20220;-80
2024/01/23 13:02:43;;;;;;;1.93;1.03;;;;;;;;;;5046368;28;20202;-81
2024/01/23 13:05:17;;;;;;;1.97;1.07;;;;;;;;;;5032343;28;20194;-80
2024/01/23 13:07:45;;;;;;;2.47;0.80;;;;;;;;;;5038270;28;20240;-81
2024/01/23 13:10:13;;;;;;;2.73;1.00;;;;;;;;;;5049302;28;20199;-80
2024/01/23 13:12:40;;;;;;;2.33;1.27;;;;;;;;;;5032955;28;20212;-81
2024/01/23 13:15:12;;;;;;;1.77;0.60;;;;;;;;;;5050335;28;20201;-79
2024/01/23 13:17:39;;;;;;;2.80;0.80;;;;;;;;;;5025783;28;20185;-79
2024/01/23 13:20:10;;;;;;;1.20;0.70;;;;;;;;;;5031970;28;20201;-80
2024/01/23 13:22:44;;;;;;;1.57;0.60;;;;;;;;;;5031043;28;20209;-81
2024/01/23 13:25:17;;;;;;;1.97;0.80;;;;;;;;;;5041261;28;20201;-79
2024/01/23 13:27:45;;;;;;;1.07;0.50;;;;;;;;;;5035747;28;20213;-83
2024/01/23 13:30:16;;;;;;;2.13;0.70;;;;;;;;;;5046877;28;20190;-80
2024/01/23 13:32:44;;;;;;;1.80;0.60;;;;;;;;;;5029983;28;20289;-81
2024/01/23 13:35:10;;;;;;;2.60;0.70;;;;;;;;;;5020788;28;20212;-81
2024/01/23 13:37:38;;;;;;;2.03;0.63;;;;;;;;;;5036991;28;20268;-84
2024/01/23 13:40:10;;;;;;;1.80;0.77;;;;;;;;;;5038159;28;20197;-80
2024/01/23 13:42:39;;;;;;;1.50;0.60;;;;;;;;;;5038803;28;20193;-79
2024/01/23 13:45:09;;;;;;;2.37;0.70;;;;;;;;;;5020380;28;20216;-80
2024/01/23 13:47:43;;;;;;;2.30;0.60;;;;;;;;;;5038849;28;20217;-82
2024/01/23 13:50:15;;;;;;;1.60;0.70;;;;;;;;;;5049626;28;20233;-79
2024/01/23 13:52:43;;;;;;;3.53;1.00;;;;;;;;;;5028425;28;20202;-80
2024/01/23 13:55:10;;;;;;;2.53;0.70;;;;;;;;;;5049091;28;20201;-80
2024/01/23 13:57:38;;;;;;;1.93;0.60;;;;;;;;;;5050562;28;20204;-81
2024/01/23 14:00:06;;;;;;;5.13;0.80;;;;;;;;;;5050007;28;20196;-80
2024/01/23 14:02:39;;;;;;;1.20;0.50;;;;;;;;;;5051414;28;20571;-80
2024/01/23 14:05:06;;;;;;;2.73;0.73;;;;;;;;;;5058086;28;20201;-79
2024/01/23 14:07:34;;;;;;;1.57;0.50;;;;;;;;;;5050959;28;20209;-81
2024/01/23 14:10:00;;;;;;;1.47;0.60;;;;;;;;;;5053720;28;20227;-79
2024/01/23 14:12:27;;;;;;;1.87;0.87;;;;;;;;;;5071194;28;20193;-79
2024/01/23 14:14:54;;;;;;;1.70;0.43;;;;;;;;;;5040782;28;20197;-82
2024/01/23 14:17:21;;;;;;;3.40;1.77;;;;;;;;;;5054086;28;20251;-79
2024/01/23 14:19:51;;;;;;;2.00;1.00;;;;;;;;;;5059596;28;20296;-82
2024/01/23 14:22:18;;;;;;;3.53;0.73;;;;;;;;;;5032355;28;20235;-82
2024/01/23 14:24:44;;;;;;;2.83;0.70;;;;;;;;;;5063232;28;20197;-79
2024/01/23 14:27:11;;;;;;;1.53;0.60;;;;;;;;;;5055822;28;20208;-81
2024/01/23 14:29:38;;;;;;;2.23;0.83;;;;;;;;;;5056391;28;20292;-80
2024/01/23 14:32:05;;;;;;;2.53;0.53;;;;;;;;;;5050060;28;20196;-80
2024/01/23 14:34:32;;;;;;;2.30;0.73;;;;;;;;;;5034553;28;20194;-81